sensor_id;sensor_type;location;lat;lon;timestamp;pressure;altitude;pressure_sealevel;temperature;humidity
64827;BME280;51265;53.972;12.286;2023-05-28T00:02:16;101559.44;;;8.29;100.00
64827;BME280;51265;53.972;12.286;2023-05-28T00:04:42;101557.19;;;8.26;100.00
64827;BME280;51265;53.972;12.286;2023-05-28T00:07:09;101562.19;;;8.29;100.00
64827;BME280;51265;53.972;12.286;2023-05-28T00:09:37;101565.69;;;8.24;100.00
64827;BME280;51265;53.972;12.286;2023-05-28T00:12:03;101566.50;;;8.20;100.00
64827;BME280;51265;53.972;12.286;2023-05-28T00:14:30;101570.28;;;8.19;100.00
64827;BME280;51265;53.972;12.286;2023-05-28T00:16:56;101562.66;;;8.21;100.00
64827;BME280;51265;53.972;12.286;2023-05-28T00:19:22;101574.44;;;8.21;100.00
64827;BME280;51265;53.972;12.286;2023-05-28T00:21:49;101561.78;;;8.15;100.00
64827;BME280;51265;53.972;12.286;2023-05-28T00:24:15;101566.97;;;8.12;100.00
64827;BME280;51265;53.972;12.286;2023-05-28T00:26:41;101566.06;;;8.06;100.00
64827;BME280;51265;53.972;12.286;2023-05-28T00:29:08;101559.69;;;8.01;100.00
64827;BME280;51265;53.972;12.286;2023-05-28T00:31:35;101559.97;;;7.99;100.00
64827;BME280;51265;53.972;12.286;2023-05-28T00:34:01;101565.97;;;7.96;100.00
64827;BME280;51265;53.972;12.286;2023-05-28T00:36:27;101559.03;;;7.88;100.00
64827;BME280;51265;53.972;12.286;2023-05-28T00:38:54;101563.88;;;7.81;100.00
64827;BME280;51265;53.972;12.286;2023-05-28T00:41:21;101557.25;;;7.77;100.00
64827;BME280;51265;53.972;12.286;2023-05-28T00:43:49;101559.13;;;7.71;100.00
64827;BME280;51265;53.972;12.286;2023-05-28T00:46:21;101557.97;;;7.67;100.00
64827;BME280;51265;53.972;12.286;2023-05-28T00:48:49;101553.56;;;7.66;100.00
64827;BME280;51265;53.972;12.286;2023-05-28T00:51:17;101555.50;;;7.66;100.00
64827;BME280;51265;53.972;12.286;2023-05-28T00:53:44;101558.19;;;7.61;100.00
64827;BME280;51265;53.972;12.286;2023-05-28T00:56:11;101564.16;;;7.58;100.00
64827;BME280;51265;53.972;12.286;2023-05-28T00:58:38;101558.03;;;7.51;100.00
64827;BME280;51265;53.972;12.286;2023-05-28T01:01:08;101561.06;;;7.49;100.00
64827;BME280;51265;53.972;12.286;2023-05-28T01:03:36;101548.72;;;7.52;100.00
64827;BME280;51265;53.972;12.286;2023-05-28T01:06:13;101555.56;;;7.49;100.00
64827;BME280;51265;53.972;12.286;2023-05-28T01:08:40;101544.84;;;7.47;100.00
64827;BME280;51265;53.972;12.286;2023-05-28T01:11:12;101549.19;;;7.43;100.00
64827;BME280;51265;53.972;12.286;2023-05-28T01:13:40;101546.16;;;7.40;100.00
64827;BME280;51265;53.972;12.286;2023-05-28T01:16:07;101543.63;;;7.38;100.00
64827;BME280;51265;53.972;12.286;2023-05-28T01:18:35;101550.78;;;7.39;100.00
64827;BME280;51265;53.972;12.286;2023-05-28T01:21:06;101544.41;;;7.34;100.00
64827;BME280;51265;53.972;12.286;2023-05-28T01:23:41;101541.34;;;7.30;100.00
64827;BME280;51265;53.972;12.286;2023-05-28T01:26:16;101541.84;;;7.27;100.00
64827;BME280;51265;53.972;12.286;2023-05-28T01:28:47;101542.38;;;7.24;100.00
64827;BME280;51265;53.972;12.286;2023-05-28T01:31:16;101536.91;;;7.24;100.00
64827;BME280;51265;53.972;12.286;2023-05-28T01:33:43;101528.09;;;7.22;100.00
64827;BME280;51265;53.972;12.286;2023-05-28T01:42:32;101533.44;;;7.12;100.00
64827;BME280;51265;53.972;12.286;2023-05-28T01:45:00;101529.28;;;7.09;100.00
64827;BME280;51265;53.972;12.286;2023-05-28T01:47:33;101525.16;;;7.07;100.00
64827;BME280;51265;53.972;12.286;2023-05-28T01:50:00;101527.63;;;7.08;100.00
64827;BME280;51265;53.972;12.286;2023-05-28T01:52:27;101524.06;;;7.08;100.00
64827;BME280;51265;53.972;12.286;2023-05-28T01:54:54;101523.47;;;7.06;100.00
64827;BME280;51265;53.972;12.286;2023-05-28T01:57:22;101521.84;;;7.05;100.00
64827;BME280;51265;53.972;12.286;2023-05-28T01:59:57;101526.31;;;7.11;100.00
64827;BME280;51265;53.972;12.286;2023-05-28T02:02:24;101527.97;;;7.12;100.00
64827;BME280;51265;53.972;12.286;2023-05-28T02:04:53;101522.97;;;7.09;100.00
64827;BME280;51265;53.972;12.286;2023-05-28T02:07:21;101530.63;;;7.07;100.00
64827;BME280;51265;53.972;12.286;2023-05-28T02:09:49;101526.22;;;7.06;100.00
64827;BME280;51265;53.972;12.286;2023-05-28T02:12:15;101528.13;;;7.05;100.00
64827;BME280;51265;53.972;12.286;2023-05-28T02:14:43;101526.75;;;7.03;100.00
64827;BME280;51265;53.972;12.286;2023-05-28T02:17:10;101534.97;;;7.03;100.00
64827;BME280;51265;53.972;12.286;2023-05-28T02:19:36;101530.47;;;6.96;100.00
64827;BME280;51265;53.972;12.286;2023-05-28T02:22:03;101520.63;;;6.95;100.00
64827;BME280;51265;53.972;12.286;2023-05-28T02:24:40;101521.72;;;6.94;100.00
64827;BME280;51265;53.972;12.286;2023-05-28T02:27:08;101527.69;;;6.91;100.00
64827;BME280;51265;53.972;12.286;2023-05-28T02:29:35;101523.63;;;6.94;100.00
64827;BME280;51265;53.972;12.286;2023-05-28T02:32:02;101525.22;;;6.90;100.00
64827;BME280;51265;53.972;12.286;2023-05-28T02:34:29;101521.06;;;6.87;100.00
64827;BME280;51265;53.972;12.286;2023-05-28T02:36:56;101522.63;;;6.83;100.00
64827;BME280;51265;53.972;12.286;2023-05-28T02:39:23;101517.66;;;6.80;100.00
64827;BME280;51265;53.972;12.286;2023-05-28T02:41:49;101524.78;;;6.81;100.00
64827;BME280;51265;53.972;12.286;2023-05-28T02:44:17;101514.91;;;6.80;100.00
64827;BME280;51265;53.972;12.286;2023-05-28T02:46:43;101516.25;;;6.78;100.00
64827;BME280;51265;53.972;12.286;2023-05-28T02:49:10;101520.38;;;6.80;100.00
64827;BME280;51265;53.972;12.286;2023-05-28T02:51:37;101518.47;;;6.81;100.00
64827;BME280;51265;53.972;12.286;2023-05-28T02:54:15;101520.06;;;6.77;100.00
64827;BME280;51265;53.972;12.286;2023-05-28T02:56:42;101520.88;;;6.77;100.00
64827;BME280;51265;53.972;12.286;2023-05-28T02:59:09;101523.13;;;6.80;100.00
64827;BME280;51265;53.972;12.286;2023-05-28T03:01:35;101519.81;;;6.78;100.00
64827;BME280;51265;53.972;12.286;2023-05-28T03:04:02;101520.38;;;6.80;100.00
64827;BME280;51265;53.972;12.286;2023-05-28T03:06:33;101520.38;;;6.80;100.00
64827;BME280;51265;53.972;12.286;2023-05-28T03:09:00;101523.72;;;6.82;100.00
64827;BME280;51265;53.972;12.286;2023-05-28T03:11:27;101523.19;;;6.85;100.00
64827;BME280;51265;53.972;12.286;2023-05-28T03:13:54;101529.66;;;6.96;100.00
64827;BME280;51265;53.972;12.286;2023-05-28T03:16:21;101528.34;;;6.98;100.00
64827;BME280;51265;53.972;12.286;2023-05-28T03:18:48;101527.31;;;7.05;100.00
64827;BME280;51265;53.972;12.286;2023-05-28T03:21:15;101527.38;;;7.10;100.00
64827;BME280;51265;53.972;12.286;2023-05-28T03:23:41;101527.75;;;7.18;100.00
64827;BME280;51265;53.972;12.286;2023-05-28T03:26:13;101524.25;;;7.23;100.00
64827;BME280;51265;53.972;12.286;2023-05-28T03:28:40;101523.56;;;7.33;100.00
64827;BME280;51265;53.972;12.286;2023-05-28T03:31:46;101521.25;;;7.46;100.00
64827;BME280;51265;53.972;12.286;2023-05-28T03:34:16;101523.50;;;7.49;100.00
64827;BME280;51265;53.972;12.286;2023-05-28T03:36:43;101508.28;;;7.64;100.00
64827;BME280;51265;53.972;12.286;2023-05-28T03:39:11;101519.25;;;7.64;100.00
64827;BME280;51265;53.972;12.286;2023-05-28T03:41:38;101505.59;;;7.69;100.00
64827;BME280;51265;53.972;12.286;2023-05-28T03:44:05;101501.25;;;7.73;100.00
64827;BME280;51265;53.972;12.286;2023-05-28T03:46:32;101506.00;;;7.78;100.00
64827;BME280;51265;53.972;12.286;2023-05-28T03:48:59;101503.25;;;7.78;100.00
64827;BME280;51265;53.972;12.286;2023-05-28T03:51:27;101498.59;;;7.78;100.00
64827;BME280;51265;53.972;12.286;2023-05-28T03:53:53;101501.94;;;7.85;100.00
64827;BME280;51265;53.972;12.286;2023-05-28T03:56:20;101499.81;;;7.92;100.00
64827;BME280;51265;53.972;12.286;2023-05-28T03:58:49;101498.25;;;8.02;100.00
64827;BME280;51265;53.972;12.286;2023-05-28T04:01:15;101496.47;;;8.17;100.00
64827;BME280;51265;53.972;12.286;2023-05-28T04:03:42;101497.66;;;8.27;100.00
64827;BME280;51265;53.972;12.286;2023-05-28T04:06:08;101494.19;;;8.36;100.00
64827;BME280;51265;53.972;12.286;2023-05-28T04:08:35;101499.75;;;8.46;100.00
64827;BME280;51265;53.972;12.286;2023-05-28T04:11:02;101499.00;;;8.56;100.00
64827;BME280;51265;53.972;12.286;2023-05-28T04:13:29;101492.75;;;8.66;100.00
64827;BME280;51265;53.972;12.286;2023-05-28T04:15:55;101486.78;;;8.74;100.00
64827;BME280;51265;53.972;12.286;2023-05-28T04:18:22;101484.06;;;8.79;100.00
64827;BME280;51265;53.972;12.286;2023-05-28T04:20:48;101491.22;;;8.85;100.00
64827;BME280;51265;53.972;12.286;2023-05-28T04:23:15;101483.03;;;8.90;100.00
64827;BME280;51265;53.972;12.286;2023-05-28T04:25:42;101484.69;;;8.96;100.00
64827;BME280;51265;53.972;12.286;2023-05-28T04:28:09;101480.91;;;9.08;100.00
64827;BME280;51265;53.972;12.286;2023-05-28T04:30:39;101490.84;;;9.19;100.00
64827;BME280;51265;53.972;12.286;2023-05-28T04:33:05;101480.94;;;9.23;100.00
64827;BME280;51265;53.972;12.286;2023-05-28T04:35:33;101478.78;;;9.30;100.00
64827;BME280;51265;53.972;12.286;2023-05-28T04:37:59;101478.00;;;9.40;100.00
64827;BME280;51265;53.972;12.286;2023-05-28T04:40:26;101475.00;;;9.57;100.00
64827;BME280;51265;53.972;12.286;2023-05-28T04:42:53;101474.75;;;9.68;100.00
64827;BME280;51265;53.972;12.286;2023-05-28T04:45:21;101467.91;;;9.86;100.00
64827;BME280;51265;53.972;12.286;2023-05-28T04:47:49;101473.16;;;9.98;100.00
64827;BME280;51265;53.972;12.286;2023-05-28T04:50:18;101464.09;;;10.08;100.00
64827;BME280;51265;53.972;12.286;2023-05-28T04:52:46;101460.22;;;10.19;100.00
64827;BME280;51265;53.972;12.286;2023-05-28T04:55:12;101458.59;;;10.28;100.00
64827;BME280;51265;53.972;12.286;2023-05-28T04:57:38;101460.25;;;10.39;100.00
64827;BME280;51265;53.972;12.286;2023-05-28T05:00:07;101455.84;;;10.54;100.00
64827;BME280;51265;53.972;12.286;2023-05-28T05:02:38;101458.03;;;10.62;100.00
64827;BME280;51265;53.972;12.286;2023-05-28T05:05:07;101456.06;;;10.72;100.00
64827;BME280;51265;53.972;12.286;2023-05-28T05:07:35;101460.72;;;10.87;100.00
64827;BME280;51265;53.972;12.286;2023-05-28T05:10:06;101455.13;;;11.03;100.00
64827;BME280;51265;53.972;12.286;2023-05-28T05:12:35;101465.28;;;11.17;100.00
64827;BME280;51265;53.972;12.286;2023-05-28T05:15:02;101463.53;;;11.32;100.00
64827;BME280;51265;53.972;12.286;2023-05-28T05:17:29;101458.81;;;11.42;100.00
64827;BME280;51265;53.972;12.286;2023-05-28T05:19:55;101456.63;;;11.39;100.00
64827;BME280;51265;53.972;12.286;2023-05-28T05:22:23;101455.50;;;11.45;100.00
64827;BME280;51265;53.972;12.286;2023-05-28T05:24:49;101463.19;;;11.48;100.00
64827;BME280;51265;53.972;12.286;2023-05-28T05:27:16;101465.31;;;11.62;100.00
64827;BME280;51265;53.972;12.286;2023-05-28T05:29:43;101456.63;;;11.79;100.00
64827;BME280;51265;53.972;12.286;2023-05-28T05:32:09;101462.34;;;11.98;100.00
64827;BME280;51265;53.972;12.286;2023-05-28T05:34:36;101445.59;;;12.18;98.76
64827;BME280;51265;53.972;12.286;2023-05-28T05:37:21;101450.66;;;12.40;97.19
64827;BME280;51265;53.972;12.286;2023-05-28T05:40:08;101433.06;;;12.60;94.57
64827;BME280;51265;53.972;12.286;2023-05-28T05:43:11;101422.81;;;12.84;91.27
64827;BME280;51265;53.972;12.286;2023-05-28T05:45:37;101420.31;;;13.07;89.77
64827;BME280;51265;53.972;12.286;2023-05-28T05:48:04;101411.28;;;13.20;88.63
64827;BME280;51265;53.972;12.286;2023-05-28T05:50:32;101408.13;;;13.32;87.82
64827;BME280;51265;53.972;12.286;2023-05-28T05:52:59;101410.97;;;13.45;87.44
64827;BME280;51265;53.972;12.286;2023-05-28T05:55:29;101396.03;;;13.47;85.60
64827;BME280;51265;53.972;12.286;2023-05-28T05:57:56;101387.72;;;13.47;84.56
64827;BME280;51265;53.972;12.286;2023-05-28T06:00:24;101395.19;;;13.65;84.48
64827;BME280;51265;53.972;12.286;2023-05-28T06:02:55;101392.41;;;13.84;84.36
64827;BME280;51265;53.972;12.286;2023-05-28T06:05:41;101387.50;;;13.94;83.28
64827;BME280;51265;53.972;12.286;2023-05-28T06:08:35;101379.97;;;14.14;82.92
64827;BME280;51265;53.972;12.286;2023-05-28T06:11:10;101375.06;;;14.25;82.41
64827;BME280;51265;53.972;12.286;2023-05-28T06:13:37;101371.38;;;14.29;82.12
64827;BME280;51265;53.972;12.286;2023-05-28T06:16:03;101368.53;;;14.34;82.23
64827;BME280;51265;53.972;12.286;2023-05-28T06:18:30;101368.25;;;14.50;82.32
64827;BME280;51265;53.972;12.286;2023-05-28T06:20:58;101366.41;;;14.73;82.26
64827;BME280;51265;53.972;12.286;2023-05-28T06:23:25;101356.44;;;14.85;81.21
64827;BME280;51265;53.972;12.286;2023-05-28T06:25:51;101356.72;;;14.98;80.38
64827;BME280;51265;53.972;12.286;2023-05-28T06:28:19;101346.66;;;15.02;78.95
64827;BME280;51265;53.972;12.286;2023-05-28T06:30:45;101341.16;;;15.24;78.84
64827;BME280;51265;53.972;12.286;2023-05-28T06:33:13;101338.25;;;15.29;78.13
64827;BME280;51265;53.972;12.286;2023-05-28T06:35:40;101329.56;;;15.44;77.35
64827;BME280;51265;53.972;12.286;2023-05-28T06:38:07;101328.06;;;15.61;77.31
64827;BME280;51265;53.972;12.286;2023-05-28T06:40:33;101331.38;;;15.85;76.62
64827;BME280;51265;53.972;12.286;2023-05-28T06:42:59;101324.75;;;15.73;76.03
64827;BME280;51265;53.972;12.286;2023-05-28T06:45:54;101312.34;;;15.56;74.78
64827;BME280;51265;53.972;12.286;2023-05-28T06:48:23;101296.66;;;15.52;73.53
64827;BME280;51265;53.972;12.286;2023-05-28T06:50:50;101296.25;;;15.44;73.13
64827;BME280;51265;53.972;12.286;2023-05-28T06:53:16;101285.97;;;15.45;72.06
64827;BME280;51265;53.972;12.286;2023-05-28T06:55:43;101292.19;;;15.51;72.85
64827;BME280;51265;53.972;12.286;2023-05-28T06:58:35;101300.72;;;15.68;72.47
64827;BME280;51265;53.972;12.286;2023-05-28T07:01:17;101301.94;;;15.84;72.55
64827;BME280;51265;53.972;12.286;2023-05-28T07:03:57;101302.16;;;15.97;71.53
64827;BME280;51265;53.972;12.286;2023-05-28T07:06:38;101294.94;;;16.18;71.06
64827;BME280;51265;53.972;12.286;2023-05-28T07:09:07;101297.72;;;16.18;70.92
64827;BME280;51265;53.972;12.286;2023-05-28T07:11:34;101297.41;;;16.28;70.61
64827;BME280;51265;53.972;12.286;2023-05-28T07:14:00;101301.16;;;16.24;71.00
64827;BME280;51265;53.972;12.286;2023-05-28T07:16:27;101318.78;;;16.19;71.16
64827;BME280;51265;53.972;12.286;2023-05-28T07:18:54;101325.34;;;16.23;71.63
64827;BME280;51265;53.972;12.286;2023-05-28T07:21:20;101325.66;;;16.22;71.20
64827;BME280;51265;53.972;12.286;2023-05-28T07:23:47;101337.97;;;16.29;72.99
64827;BME280;51265;53.972;12.286;2023-05-28T07:26:14;101333.22;;;16.30;72.35
64827;BME280;51265;53.972;12.286;2023-05-28T07:28:40;101316.56;;;16.38;70.51
64827;BME280;51265;53.972;12.286;2023-05-28T07:31:08;101331.91;;;16.27;71.75
64827;BME280;51265;53.972;12.286;2023-05-28T07:33:35;101311.25;;;16.11;70.01
64827;BME280;51265;53.972;12.286;2023-05-28T07:36:03;101300.81;;;16.25;69.08
64827;BME280;51265;53.972;12.286;2023-05-28T07:38:29;101304.69;;;16.07;68.27
64827;BME280;51265;53.972;12.286;2023-05-28T07:40:59;101321.50;;;16.02;68.95
64827;BME280;51265;53.972;12.286;2023-05-28T07:43:32;101333.50;;;16.19;69.83
64827;BME280;51265;53.972;12.286;2023-05-28T07:46:04;101328.56;;;16.48;69.16
64827;BME280;51265;53.972;12.286;2023-05-28T07:48:39;101324.22;;;16.64;68.00
64827;BME280;51265;53.972;12.286;2023-05-28T07:51:10;101329.03;;;16.89;68.30
64827;BME280;51265;53.972;12.286;2023-05-28T07:53:45;101320.03;;;16.92;68.00
64827;BME280;51265;53.972;12.286;2023-05-28T07:56:19;101329.56;;;17.43;67.49
64827;BME280;51265;53.972;12.286;2023-05-28T07:58:47;101330.38;;;17.61;67.33
64827;BME280;51265;53.972;12.286;2023-05-28T08:01:16;101317.91;;;17.59;66.27
64827;BME280;51265;53.972;12.286;2023-05-28T08:03:43;101290.09;;;17.41;64.88
64827;BME280;51265;53.972;12.286;2023-05-28T08:06:09;101321.28;;;18.08;66.06
64827;BME280;51265;53.972;12.286;2023-05-28T08:08:38;101300.41;;;18.61;63.07
64827;BME280;51265;53.972;12.286;2023-05-28T08:11:07;101278.22;;;18.73;61.02
64827;BME280;51265;53.972;12.286;2023-05-28T08:13:39;101276.25;;;18.95;60.97
64827;BME280;51265;53.972;12.286;2023-05-28T08:16:05;101266.78;;;19.08;60.09
64827;BME280;51265;53.972;12.286;2023-05-28T08:18:48;101262.81;;;19.09;60.03
64827;BME280;51265;53.972;12.286;2023-05-28T08:21:14;101256.28;;;19.05;59.79
64827;BME280;51265;53.972;12.286;2023-05-28T08:23:41;101254.22;;;19.14;60.46
64827;BME280;51265;53.972;12.286;2023-05-28T08:26:09;101266.09;;;18.90;61.56
64827;BME280;51265;53.972;12.286;2023-05-28T08:28:36;101256.56;;;18.70;61.91
64827;BME280;51265;53.972;12.286;2023-05-28T08:31:03;101253.53;;;18.16;62.28
64827;BME280;51265;53.972;12.286;2023-05-28T08:33:38;101270.69;;;17.88;63.96
64827;BME280;51265;53.972;12.286;2023-05-28T08:36:05;101285.47;;;17.63;65.69
64827;BME280;51265;53.972;12.286;2023-05-28T08:38:32;101286.97;;;17.34;66.52
64827;BME280;51265;53.972;12.286;2023-05-28T08:41:01;101306.78;;;17.41;67.21
64827;BME280;51265;53.972;12.286;2023-05-28T08:43:28;101300.75;;;17.39;66.56
64827;BME280;51265;53.972;12.286;2023-05-28T08:45:56;101291.72;;;17.42;65.40
64827;BME280;51265;53.972;12.286;2023-05-28T08:48:34;101305.66;;;17.60;66.28
64827;BME280;51265;53.972;12.286;2023-05-28T08:51:02;101299.38;;;17.98;65.38
64827;BME280;51265;53.972;12.286;2023-05-28T08:53:39;101327.13;;;18.62;64.87
64827;BME280;51265;53.972;12.286;2023-05-28T08:56:06;101299.16;;;18.79;63.35
64827;BME280;51265;53.972;12.286;2023-05-28T08:58:35;101271.06;;;18.55;61.59
64827;BME280;51265;53.972;12.286;2023-05-28T09:01:05;101279.25;;;18.89;61.97
64827;BME280;51265;53.972;12.286;2023-05-28T09:03:46;101304.84;;;19.33;62.80
64827;BME280;51265;53.972;12.286;2023-05-28T09:06:18;101268.00;;;19.19;61.11
64827;BME280;51265;53.972;12.286;2023-05-28T09:08:45;101287.19;;;19.41;62.53
64827;BME280;51265;53.972;12.286;2023-05-28T09:11:20;101285.34;;;19.46;62.04
64827;BME280;51265;53.972;12.286;2023-05-28T09:13:48;101251.63;;;19.30;60.52
64827;BME280;51265;53.972;12.286;2023-05-28T09:16:22;101307.03;;;20.52;61.44
64827;BME280;51265;53.972;12.286;2023-05-28T09:19:01;101257.59;;;20.56;58.59
64827;BME280;51265;53.972;12.286;2023-05-28T09:21:29;101228.78;;;20.06;58.18
64827;BME280;51265;53.972;12.286;2023-05-28T09:24:01;101251.81;;;20.49;58.12
64827;BME280;51265;53.972;12.286;2023-05-28T09:26:47;101228.47;;;20.32;57.40
64827;BME280;51265;53.972;12.286;2023-05-28T09:29:26;101241.81;;;19.45;59.95
64827;BME280;51265;53.972;12.286;2023-05-28T09:31:58;101245.88;;;19.47;60.46
64827;BME280;51265;53.972;12.286;2023-05-28T09:34:31;101250.31;;;19.15;60.62
64827;BME280;51265;53.972;12.286;2023-05-28T09:37:04;101258.47;;;18.78;62.29
64827;BME280;51265;53.972;12.286;2023-05-28T09:39:32;101269.44;;;18.54;62.76
64827;BME280;51265;53.972;12.286;2023-05-28T09:42:00;101288.19;;;18.45;63.41
64827;BME280;51265;53.972;12.286;2023-05-28T09:44:33;101265.09;;;18.35;62.27
64827;BME280;51265;53.972;12.286;2023-05-28T09:46:59;101301.94;;;18.50;64.67
64827;BME280;51265;53.972;12.286;2023-05-28T09:49:28;101302.22;;;18.57;63.97
64827;BME280;51265;53.972;12.286;2023-05-28T09:51:57;101312.91;;;18.84;63.67
64827;BME280;51265;53.972;12.286;2023-05-28T09:54:25;101308.41;;;18.71;63.83
64827;BME280;51265;53.972;12.286;2023-05-28T09:56:58;101288.59;;;18.55;62.77
64827;BME280;51265;53.972;12.286;2023-05-28T09:59:26;101294.19;;;18.55;63.28
64827;BME280;51265;53.972;12.286;2023-05-28T10:01:57;101281.97;;;18.69;62.15
64827;BME280;51265;53.972;12.286;2023-05-28T10:04:33;101273.19;;;19.08;60.41
64827;BME280;51265;53.972;12.286;2023-05-28T10:07:03;101294.97;;;19.90;60.73
64827;BME280;51265;53.972;12.286;2023-05-28T10:09:32;101259.66;;;20.10;58.73
64827;BME280;51265;53.972;12.286;2023-05-28T10:12:09;101269.50;;;20.28;59.84
64827;BME280;51265;53.972;12.286;2023-05-28T10:14:37;101244.09;;;19.63;59.46
64827;BME280;51265;53.972;12.286;2023-05-28T10:17:05;101228.97;;;19.44;59.16
64827;BME280;51265;53.972;12.286;2023-05-28T10:19:34;101229.38;;;19.21;59.72
64827;BME280;51265;53.972;12.286;2023-05-28T10:22:01;101279.69;;;19.87;61.01
64827;BME280;51265;53.972;12.286;2023-05-28T10:24:28;101250.34;;;20.06;58.92
64827;BME280;51265;53.972;12.286;2023-05-28T10:26:56;101230.75;;;19.94;58.96
64827;BME280;51265;53.972;12.286;2023-05-28T10:29:23;101230.53;;;19.86;58.73
64827;BME280;51265;53.972;12.286;2023-05-28T10:31:59;101221.66;;;19.84;58.02
64827;BME280;51265;53.972;12.286;2023-05-28T10:34:32;101237.78;;;20.36;58.03
64827;BME280;51265;53.972;12.286;2023-05-28T10:37:09;101228.66;;;20.76;56.78
64827;BME280;51265;53.972;12.286;2023-05-28T10:39:40;101211.53;;;20.66;56.19
64827;BME280;51265;53.972;12.286;2023-05-28T10:42:08;101199.63;;;20.69;55.70
64827;BME280;51265;53.972;12.286;2023-05-28T10:47:34;101231.75;;;21.27;56.36
64827;BME280;51265;53.972;12.286;2023-05-28T10:50:15;101210.16;;;21.00;55.92
64827;BME280;51265;53.972;12.286;2023-05-28T10:52:42;101193.97;;;21.21;54.54
64827;BME280;51265;53.972;12.286;2023-05-28T10:55:10;101193.38;;;21.00;54.89
64827;BME280;51265;53.972;12.286;2023-05-28T11:00:10;101211.50;;;21.46;54.99
64827;BME280;51265;53.972;12.286;2023-05-28T11:02:44;101192.09;;;21.25;54.71
64827;BME280;51265;53.972;12.286;2023-05-28T11:05:13;101181.91;;;20.64;55.10
64827;BME280;51265;53.972;12.286;2023-05-28T11:07:41;101189.47;;;20.76;54.39
64827;BME280;51265;53.972;12.286;2023-05-28T11:10:10;101179.19;;;20.80;54.00
64827;BME280;51265;53.972;12.286;2023-05-28T11:12:38;101162.31;;;21.05;52.90
64827;BME280;51265;53.972;12.286;2023-05-28T11:15:06;101203.47;;;21.76;54.16
64827;BME280;51265;53.972;12.286;2023-05-28T11:17:43;101136.03;;;21.09;51.43
64827;BME280;51265;53.972;12.286;2023-05-28T11:20:18;101156.91;;;21.12;53.05
64827;BME280;51265;53.972;12.286;2023-05-28T11:22:46;101191.09;;;21.61;53.67
64827;BME280;51265;53.972;12.286;2023-05-28T11:25:13;101179.59;;;21.98;51.93
64827;BME280;51265;53.972;12.286;2023-05-28T11:27:39;101132.56;;;21.92;50.27
64827;BME280;51265;53.972;12.286;2023-05-28T11:30:13;101146.50;;;21.41;52.03
64827;BME280;51265;53.972;12.286;2023-05-28T11:32:41;101141.38;;;21.30;51.68
64827;BME280;51265;53.972;12.286;2023-05-28T11:35:14;101135.78;;;21.30;51.45
64827;BME280;51265;53.972;12.286;2023-05-28T11:37:51;101137.47;;;21.63;50.57
64827;BME280;51265;53.972;12.286;2023-05-28T11:40:19;101132.16;;;21.14;51.97
64827;BME280;51265;53.972;12.286;2023-05-28T11:42:57;101151.81;;;21.02;52.92
64827;BME280;51265;53.972;12.286;2023-05-28T11:45:24;101171.41;;;21.30;52.99
64827;BME280;51265;53.972;12.286;2023-05-28T11:47:51;101145.06;;;21.47;51.67
64827;BME280;51265;53.972;12.286;2023-05-28T11:50:17;101162.78;;;21.51;51.99
64827;BME280;51265;53.972;12.286;2023-05-28T11:52:45;101174.53;;;21.88;51.83
64827;BME280;51265;53.972;12.286;2023-05-28T11:55:12;101145.22;;;22.17;50.35
64827;BME280;51265;53.972;12.286;2023-05-28T11:57:50;101123.91;;;21.65;50.27
64827;BME280;51265;53.972;12.286;2023-05-28T12:00:17;101086.97;;;21.31;49.64
64827;BME280;51265;53.972;12.286;2023-05-28T12:02:51;101149.59;;;21.67;52.20
64827;BME280;51265;53.972;12.286;2023-05-28T12:05:19;101142.06;;;21.55;52.02
64827;BME280;51265;53.972;12.286;2023-05-28T12:07:51;101127.34;;;21.14;52.22
64827;BME280;51265;53.972;12.286;2023-05-28T12:10:20;101142.44;;;21.10;52.79
64827;BME280;51265;53.972;12.286;2023-05-28T12:12:48;101155.34;;;21.14;53.59
64827;BME280;51265;53.972;12.286;2023-05-28T12:15:17;101129.97;;;21.23;52.01
64827;BME280;51265;53.972;12.286;2023-05-28T12:17:44;101122.66;;;21.03;51.98
64827;BME280;51265;53.972;12.286;2023-05-28T12:22:39;101137.13;;;21.49;51.12
64827;BME280;51265;53.972;12.286;2023-05-28T12:25:06;101118.50;;;21.41;50.44
64827;BME280;51265;53.972;12.286;2023-05-28T12:27:33;101122.97;;;21.29;51.60
64827;BME280;51265;53.972;12.286;2023-05-28T12:30:00;101152.41;;;21.67;51.80
64827;BME280;51265;53.972;12.286;2023-05-28T12:32:26;101112.41;;;21.38;50.32
64827;BME280;51265;53.972;12.286;2023-05-28T12:34:53;101148.88;;;21.70;51.20
64827;BME280;51265;53.972;12.286;2023-05-28T12:37:23;101134.47;;;22.03;49.96
64827;BME280;51265;53.972;12.286;2023-05-28T12:39:52;101118.44;;;22.04;48.84
64827;BME280;51265;53.972;12.286;2023-05-28T12:42:20;101119.66;;;21.71;49.64
64827;BME280;51265;53.972;12.286;2023-05-28T12:44:46;101143.41;;;22.09;50.37
64827;BME280;51265;53.972;12.286;2023-05-28T12:47:13;101140.31;;;22.30;49.01
64827;BME280;51265;53.972;12.286;2023-05-28T12:49:39;101130.56;;;22.43;48.52
64827;BME280;51265;53.972;12.286;2023-05-28T12:52:06;101092.19;;;22.12;47.46
64827;BME280;51265;53.972;12.286;2023-05-28T12:54:33;101105.50;;;22.15;48.48
64827;BME280;51265;53.972;12.286;2023-05-28T12:57:00;101126.22;;;23.23;46.98
64827;BME280;51265;53.972;12.286;2023-05-28T12:59:27;101139.19;;;24.50;45.46
64827;BME280;51265;53.972;12.286;2023-05-28T13:01:54;101098.78;;;23.85;45.26
64827;BME280;51265;53.972;12.286;2023-05-28T13:04:22;101081.94;;;23.40;45.78
64827;BME280;51265;53.972;12.286;2023-05-28T13:06:48;101067.69;;;23.52;45.05